sensor_id;sensor_type;location;lat;lon;timestamp;temperature;humidity
71047;SHT31;58703;48.978;8.982;2023-04-07T00:01:56;6.13;95.55
71047;SHT31;58703;48.978;8.982;2023-04-07T00:04:23;6.10;95.46
71047;SHT31;58703;48.978;8.982;2023-04-07T00:06:48;6.13;95.48
71047;SHT31;58703;48.978;8.982;2023-04-07T00:09:14;6.13;95.75
71047;SHT31;58703;48.978;8.982;2023-04-07T00:11:40;6.15;95.25
71047;SHT31;58703;48.978;8.982;2023-04-07T00:14:07;6.14;95.30
71047;SHT31;58703;48.978;8.982;2023-04-07T00:16:33;6.15;95.31
71047;SHT31;58703;48.978;8.982;2023-04-07T00:19:00;6.14;95.75
71047;SHT31;58703;48.978;8.982;2023-04-07T00:21:27;6.13;95.11
71047;SHT31;58703;48.978;8.982;2023-04-07T00:23:53;6.15;95.10
71047;SHT31;58703;48.978;8.982;2023-04-07T00:26:18;6.21;94.82
71047;SHT31;58703;48.978;8.982;2023-04-07T00:28:44;6.20;95.01
71047;SHT31;58703;48.978;8.982;2023-04-07T00:31:11;6.24;94.51
71047;SHT31;58703;48.978;8.982;2023-04-07T00:33:36;6.24;94.17
71047;SHT31;58703;48.978;8.982;2023-04-07T00:36:03;6.29;94.42
71047;SHT31;58703;48.978;8.982;2023-04-07T00:38:30;6.34;94.15
71047;SHT31;58703;48.978;8.982;2023-04-07T00:40:57;6.32;93.77
71047;SHT31;58703;48.978;8.982;2023-04-07T00:43:23;6.31;93.47
71047;SHT31;58703;48.978;8.982;2023-04-07T00:45:50;6.35;93.65
71047;SHT31;58703;48.978;8.982;2023-04-07T00:48:17;6.35;93.90
71047;SHT31;58703;48.978;8.982;2023-04-07T00:50:44;6.22;94.09
71047;SHT31;58703;48.978;8.982;2023-04-07T00:53:11;6.22;94.73
71047;SHT31;58703;48.978;8.982;2023-04-07T00:55:36;6.22;94.80
71047;SHT31;58703;48.978;8.982;2023-04-07T00:58:02;6.28;94.42
71047;SHT31;58703;48.978;8.982;2023-04-07T01:00:41;6.36;95.24
71047;SHT31;58703;48.978;8.982;2023-04-07T01:03:18;6.36;94.62
71047;SHT31;58703;48.978;8.982;2023-04-07T01:05:58;6.31;94.76
71047;SHT31;58703;48.978;8.982;2023-04-07T01:11:43;6.24;95.15
71047;SHT31;58703;48.978;8.982;2023-04-07T01:14:14;6.24;94.62
71047;SHT31;58703;48.978;8.982;2023-04-07T01:16:51;6.22;95.20
71047;SHT31;58703;48.978;8.982;2023-04-07T01:19:33;6.17;94.96
71047;SHT31;58703;48.978;8.982;2023-04-07T01:21:59;6.15;95.34
71047;SHT31;58703;48.978;8.982;2023-04-07T01:24:54;6.11;95.01
71047;SHT31;58703;48.978;8.982;2023-04-07T01:30:02;6.15;95.04
71047;SHT31;58703;48.978;8.982;2023-04-07T01:32:29;6.20;94.99
71047;SHT31;58703;48.978;8.982;2023-04-07T01:34:58;6.21;94.76
71047;SHT31;58703;48.978;8.982;2023-04-07T01:37:26;6.21;94.35
71047;SHT31;58703;48.978;8.982;2023-04-07T01:39:52;6.22;94.88
71047;SHT31;58703;48.978;8.982;2023-04-07T01:42:19;6.24;94.55
71047;SHT31;58703;48.978;8.982;2023-04-07T01:44:46;6.24;94.47
71047;SHT31;58703;48.978;8.982;2023-04-07T01:47:14;6.25;94.79
71047;SHT31;58703;48.978;8.982;2023-04-07T01:49:40;6.22;94.72
71047;SHT31;58703;48.978;8.982;2023-04-07T01:52:08;6.20;94.99
71047;SHT31;58703;48.978;8.982;2023-04-07T01:54:35;6.22;94.93
71047;SHT31;58703;48.978;8.982;2023-04-07T01:57:03;6.24;95.09
71047;SHT31;58703;48.978;8.982;2023-04-07T01:59:28;6.25;94.97
71047;SHT31;58703;48.978;8.982;2023-04-07T02:01:55;6.22;94.98
71047;SHT31;58703;48.978;8.982;2023-04-07T02:04:36;6.31;94.77
71047;SHT31;58703;48.978;8.982;2023-04-07T02:07:09;6.31;94.79
71047;SHT31;58703;48.978;8.982;2023-04-07T02:09:41;6.28;95.04
71047;SHT31;58703;48.978;8.982;2023-04-07T02:12:13;6.25;95.12
71047;SHT31;58703;48.978;8.982;2023-04-07T02:14:41;6.25;95.46
71047;SHT31;58703;48.978;8.982;2023-04-07T02:17:07;6.26;95.62
71047;SHT31;58703;48.978;8.982;2023-04-07T02:19:35;6.21;95.35
71047;SHT31;58703;48.978;8.982;2023-04-07T02:22:04;6.20;95.98
71047;SHT31;58703;48.978;8.982;2023-04-07T02:24:32;6.18;96.47
71047;SHT31;58703;48.978;8.982;2023-04-07T02:26:57;6.21;96.15
71047;SHT31;58703;48.978;8.982;2023-04-07T02:29:26;6.22;96.26
71047;SHT31;58703;48.978;8.982;2023-04-07T02:31:52;6.22;96.27
71047;SHT31;58703;48.978;8.982;2023-04-07T02:34:17;6.20;95.67
71047;SHT31;58703;48.978;8.982;2023-04-07T02:36:44;6.21;96.07
71047;SHT31;58703;48.978;8.982;2023-04-07T02:39:11;6.21;96.08
71047;SHT31;58703;48.978;8.982;2023-04-07T02:41:36;6.21;96.04
71047;SHT31;58703;48.978;8.982;2023-04-07T02:44:03;6.20;95.80
71047;SHT31;58703;48.978;8.982;2023-04-07T02:46:29;6.18;95.80
71047;SHT31;58703;48.978;8.982;2023-04-07T02:48:54;6.21;95.78
71047;SHT31;58703;48.978;8.982;2023-04-07T02:51:21;6.17;95.40
71047;SHT31;58703;48.978;8.982;2023-04-07T02:53:48;6.22;96.06
71047;SHT31;58703;48.978;8.982;2023-04-07T02:56:15;6.21;95.95
71047;SHT31;58703;48.978;8.982;2023-04-07T02:58:42;6.24;96.02
71047;SHT31;58703;48.978;8.982;2023-04-07T03:01:07;6.21;96.07
71047;SHT31;58703;48.978;8.982;2023-04-07T03:03:34;6.21;96.26
71047;SHT31;58703;48.978;8.982;2023-04-07T03:06:00;6.22;96.35
71047;SHT31;58703;48.978;8.982;2023-04-07T03:08:27;6.28;96.27
71047;SHT31;58703;48.978;8.982;2023-04-07T03:10:54;6.25;96.11
71047;SHT31;58703;48.978;8.982;2023-04-07T03:13:20;6.26;96.09
71047;SHT31;58703;48.978;8.982;2023-04-07T03:15:46;6.29;95.84
71047;SHT31;58703;48.978;8.982;2023-04-07T03:18:12;6.32;95.80
71047;SHT31;58703;48.978;8.982;2023-04-07T03:20:39;6.34;95.91
71047;SHT31;58703;48.978;8.982;2023-04-07T03:23:06;6.38;95.82
71047;SHT31;58703;48.978;8.982;2023-04-07T03:25:33;6.29;95.64
71047;SHT31;58703;48.978;8.982;2023-04-07T03:27:59;6.26;95.96
71047;SHT31;58703;48.978;8.982;2023-04-07T03:30:24;6.26;96.14
71047;SHT31;58703;48.978;8.982;2023-04-07T03:32:50;6.28;96.08
71047;SHT31;58703;48.978;8.982;2023-04-07T03:35:15;6.31;95.90
71047;SHT31;58703;48.978;8.982;2023-04-07T03:37:41;6.31;95.85
71047;SHT31;58703;48.978;8.982;2023-04-07T03:40:08;6.31;96.00
71047;SHT31;58703;48.978;8.982;2023-04-07T03:42:35;6.32;96.32
71047;SHT31;58703;48.978;8.982;2023-04-07T03:45:01;6.26;96.31
71047;SHT31;58703;48.978;8.982;2023-04-07T03:47:26;6.26;96.42
71047;SHT31;58703;48.978;8.982;2023-04-07T03:49:52;6.32;96.33
71047;SHT31;58703;48.978;8.982;2023-04-07T03:52:17;6.26;96.08
71047;SHT31;58703;48.978;8.982;2023-04-07T03:54:43;6.28;96.27
71047;SHT31;58703;48.978;8.982;2023-04-07T03:57:08;6.26;96.09
71047;SHT31;58703;48.978;8.982;2023-04-07T03:59:35;6.29;95.98
71047;SHT31;58703;48.978;8.982;2023-04-07T04:02:01;6.32;95.79
71047;SHT31;58703;48.978;8.982;2023-04-07T04:04:28;6.34;95.52
71047;SHT31;58703;48.978;8.982;2023-04-07T04:06:53;6.36;95.71
71047;SHT31;58703;48.978;8.982;2023-04-07T04:09:20;6.35;95.79
71047;SHT31;58703;48.978;8.982;2023-04-07T04:11:47;6.36;95.64
71047;SHT31;58703;48.978;8.982;2023-04-07T04:14:14;6.41;95.78
71047;SHT31;58703;48.978;8.982;2023-04-07T04:16:42;6.36;95.50
71047;SHT31;58703;48.978;8.982;2023-04-07T04:19:08;6.36;95.79
71047;SHT31;58703;48.978;8.982;2023-04-07T04:21:35;6.29;95.48
71047;SHT31;58703;48.978;8.982;2023-04-07T04:24:01;6.26;95.89
71047;SHT31;58703;48.978;8.982;2023-04-07T04:26:27;6.26;95.53
71047;SHT31;58703;48.978;8.982;2023-04-07T04:28:54;6.31;95.46
71047;SHT31;58703;48.978;8.982;2023-04-07T04:31:20;6.35;95.40
71047;SHT31;58703;48.978;8.982;2023-04-07T04:33:46;6.38;95.35
71047;SHT31;58703;48.978;8.982;2023-04-07T04:36:11;6.34;95.55
71047;SHT31;58703;48.978;8.982;2023-04-07T04:38:38;6.36;95.38
71047;SHT31;58703;48.978;8.982;2023-04-07T04:41:04;6.38;95.52
71047;SHT31;58703;48.978;8.982;2023-04-07T04:43:31;6.42;95.40
71047;SHT31;58703;48.978;8.982;2023-04-07T04:45:57;6.45;95.10
71047;SHT31;58703;48.978;8.982;2023-04-07T04:48:23;6.42;94.76
71047;SHT31;58703;48.978;8.982;2023-04-07T04:50:50;6.42;95.18
71047;SHT31;58703;48.978;8.982;2023-04-07T04:53:15;6.39;95.22
71047;SHT31;58703;48.978;8.982;2023-04-07T04:55:41;6.42;95.50
71047;SHT31;58703;48.978;8.982;2023-04-07T04:58:11;6.35;95.05
71047;SHT31;58703;48.978;8.982;2023-04-07T05:00:37;6.36;94.82
71047;SHT31;58703;48.978;8.982;2023-04-07T05:03:02;6.39;94.86
71047;SHT31;58703;48.978;8.982;2023-04-07T05:05:30;6.42;94.80
71047;SHT31;58703;48.978;8.982;2023-04-07T05:07:55;6.42;95.14
71047;SHT31;58703;48.978;8.982;2023-04-07T05:10:22;6.44;95.10
71047;SHT31;58703;48.978;8.982;2023-04-07T05:12:48;6.39;95.03
71047;SHT31;58703;48.978;8.982;2023-04-07T05:15:13;6.35;95.47
71047;SHT31;58703;48.978;8.982;2023-04-07T05:17:39;6.34;95.36
71047;SHT31;58703;48.978;8.982;2023-04-07T05:20:08;6.35;95.26
71047;SHT31;58703;48.978;8.982;2023-04-07T05:22:35;6.35;95.52
71047;SHT31;58703;48.978;8.982;2023-04-07T05:25:01;6.32;95.27
71047;SHT31;58703;48.978;8.982;2023-04-07T05:27:27;6.36;95.47
71047;SHT31;58703;48.978;8.982;2023-04-07T05:29:52;6.35;95.22
71047;SHT31;58703;48.978;8.982;2023-04-07T05:32:18;6.26;95.33
71047;SHT31;58703;48.978;8.982;2023-04-07T05:34:43;6.25;95.50
71047;SHT31;58703;48.978;8.982;2023-04-07T05:37:10;6.21;95.44
71047;SHT31;58703;48.978;8.982;2023-04-07T05:39:37;6.14;95.40
71047;SHT31;58703;48.978;8.982;2023-04-07T05:42:04;6.11;95.71
71047;SHT31;58703;48.978;8.982;2023-04-07T05:44:30;6.04;95.65
71047;SHT31;58703;48.978;8.982;2023-04-07T05:46:56;6.03;95.76
71047;SHT31;58703;48.978;8.982;2023-04-07T05:49:21;5.93;96.02
71047;SHT31;58703;48.978;8.982;2023-04-07T05:51:47;5.94;95.90
71047;SHT31;58703;48.978;8.982;2023-04-07T05:54:13;5.95;95.80
71047;SHT31;58703;48.978;8.982;2023-04-07T05:56:39;5.94;95.94
71047;SHT31;58703;48.978;8.982;2023-04-07T05:59:04;5.95;96.02
71047;SHT31;58703;48.978;8.982;2023-04-07T06:01:30;5.97;95.80
71047;SHT31;58703;48.978;8.982;2023-04-07T06:03:55;6.01;95.85
71047;SHT31;58703;48.978;8.982;2023-04-07T06:06:23;6.07;95.61
71047;SHT31;58703;48.978;8.982;2023-04-07T06:08:50;6.15;95.36
71047;SHT31;58703;48.978;8.982;2023-04-07T06:11:15;6.20;94.91
71047;SHT31;58703;48.978;8.982;2023-04-07T06:13:42;6.26;94.41
71047;SHT31;58703;48.978;8.982;2023-04-07T06:16:07;6.32;94.39
71047;SHT31;58703;48.978;8.982;2023-04-07T06:18:33;6.44;94.23
71047;SHT31;58703;48.978;8.982;2023-04-07T06:21:00;6.57;93.81
71047;SHT31;58703;48.978;8.982;2023-04-07T06:23:26;6.65;93.18
71047;SHT31;58703;48.978;8.982;2023-04-07T06:25:52;6.82;92.72
71047;SHT31;58703;48.978;8.982;2023-04-07T06:28:18;7.30;91.70
71047;SHT31;58703;48.978;8.982;2023-04-07T06:30:44;7.77;90.01
71047;SHT31;58703;48.978;8.982;2023-04-07T06:33:09;7.86;89.50
71047;SHT31;58703;48.978;8.982;2023-04-07T06:35:35;7.50;90.18
71047;SHT31;58703;48.978;8.982;2023-04-07T06:38:01;7.31;91.01
71047;SHT31;58703;48.978;8.982;2023-04-07T06:40:27;7.44;91.09
71047;SHT31;58703;48.978;8.982;2023-04-07T06:42:54;7.31;91.09
71047;SHT31;58703;48.978;8.982;2023-04-07T06:45:20;7.50;91.51
71047;SHT31;58703;48.978;8.982;2023-04-07T06:47:47;7.47;91.21
71047;SHT31;58703;48.978;8.982;2023-04-07T06:50:14;7.44;91.23
71047;SHT31;58703;48.978;8.982;2023-04-07T06:52:39;7.52;91.19
71047;SHT31;58703;48.978;8.982;2023-04-07T06:55:05;7.88;90.55
71047;SHT31;58703;48.978;8.982;2023-04-07T06:57:33;8.10;89.81
71047;SHT31;58703;48.978;8.982;2023-04-07T06:59:59;8.56;88.05
71047;SHT31;58703;48.978;8.982;2023-04-07T07:02:24;8.87;86.84
71047;SHT31;58703;48.978;8.982;2023-04-07T07:04:50;9.19;84.72
71047;SHT31;58703;48.978;8.982;2023-04-07T07:07:15;8.91;85.67
71047;SHT31;58703;48.978;8.982;2023-04-07T07:09:42;9.65;85.95
71047;SHT31;58703;48.978;8.982;2023-04-07T07:12:09;9.70;87.30
71047;SHT31;58703;48.978;8.982;2023-04-07T07:14:34;9.75;85.02
71047;SHT31;58703;48.978;8.982;2023-04-07T07:17:00;9.40;83.34
71047;SHT31;58703;48.978;8.982;2023-04-07T07:19:25;9.96;84.37
71047;SHT31;58703;48.978;8.982;2023-04-07T07:21:51;10.25;81.64
71047;SHT31;58703;48.978;8.982;2023-04-07T07:24:17;10.06;82.41
71047;SHT31;58703;48.978;8.982;2023-04-07T07:26:42;9.56;81.47
71047;SHT31;58703;48.978;8.982;2023-04-07T07:29:10;9.32;83.39
71047;SHT31;58703;48.978;8.982;2023-04-07T07:31:36;9.19;82.56
71047;SHT31;58703;48.978;8.982;2023-04-07T07:34:01;9.39;82.03
71047;SHT31;58703;48.978;8.982;2023-04-07T07:36:27;9.46;80.89
71047;SHT31;58703;48.978;8.982;2023-04-07T07:38:52;9.82;81.14
71047;SHT31;58703;48.978;8.982;2023-04-07T07:41:18;9.60;82.20
71047;SHT31;58703;48.978;8.982;2023-04-07T07:43:44;9.87;81.91
71047;SHT31;58703;48.978;8.982;2023-04-07T07:46:10;10.27;81.81
71047;SHT31;58703;48.978;8.982;2023-04-07T07:48:35;10.54;79.93
71047;SHT31;58703;48.978;8.982;2023-04-07T07:51:01;10.00;80.77
71047;SHT31;58703;48.978;8.982;2023-04-07T07:53:26;10.14;79.49
71047;SHT31;58703;48.978;8.982;2023-04-07T07:55:52;10.65;78.30
71047;SHT31;58703;48.978;8.982;2023-04-07T07:58:20;11.01;77.83
71047;SHT31;58703;48.978;8.982;2023-04-07T08:00:47;10.86;76.45
71047;SHT31;58703;48.978;8.982;2023-04-07T08:03:13;10.69;78.91
71047;SHT31;58703;48.978;8.982;2023-04-07T08:05:38;11.19;76.97
71047;SHT31;58703;48.978;8.982;2023-04-07T08:08:04;11.63;76.19
71047;SHT31;58703;48.978;8.982;2023-04-07T08:10:30;12.34;76.66
71047;SHT31;58703;48.978;8.982;2023-04-07T08:12:55;12.53;76.59
71047;SHT31;58703;48.978;8.982;2023-04-07T08:15:22;12.59;74.59
71047;SHT31;58703;48.978;8.982;2023-04-07T08:17:49;12.73;76.67
71047;SHT31;58703;48.978;8.982;2023-04-07T08:20:14;12.52;72.33
71047;SHT31;58703;48.978;8.982;2023-04-07T08:22:40;12.10;72.99
71047;SHT31;58703;48.978;8.982;2023-04-07T08:25:07;12.11;75.13
71047;SHT31;58703;48.978;8.982;2023-04-07T08:27:33;12.38;73.71
71047;SHT31;58703;48.978;8.982;2023-04-07T08:30:03;12.76;70.73
71047;SHT31;58703;48.978;8.982;2023-04-07T08:32:42;12.49;73.46
71047;SHT31;58703;48.978;8.982;2023-04-07T08:35:08;12.95;73.85
71047;SHT31;58703;48.978;8.982;2023-04-07T08:37:37;13.09;71.72
71047;SHT31;58703;48.978;8.982;2023-04-07T08:40:03;13.43;73.44
71047;SHT31;58703;48.978;8.982;2023-04-07T08:42:30;14.12;72.23
71047;SHT31;58703;48.978;8.982;2023-04-07T08:44:58;14.12;71.62
71047;SHT31;58703;48.978;8.982;2023-04-07T08:47:30;13.57;70.05
71047;SHT31;58703;48.978;8.982;2023-04-07T08:50:01;14.22;66.03
71047;SHT31;58703;48.978;8.982;2023-04-07T08:52:41;15.11;65.93
71047;SHT31;58703;48.978;8.982;2023-04-07T08:55:09;14.90;64.15
71047;SHT31;58703;48.978;8.982;2023-04-07T08:57:36;14.39;65.85
71047;SHT31;58703;48.978;8.982;2023-04-07T09:00:04;12.13;72.48
71047;SHT31;58703;48.978;8.982;2023-04-07T09:02:34;12.45;71.68
71047;SHT31;58703;48.978;8.982;2023-04-07T09:05:05;13.38;68.48
71047;SHT31;58703;48.978;8.982;2023-04-07T09:07:34;14.74;71.95
71047;SHT31;58703;48.978;8.982;2023-04-07T09:10:02;14.18;66.58
71047;SHT31;58703;48.978;8.982;2023-04-07T09:12:30;12.97;67.87
71047;SHT31;58703;48.978;8.982;2023-04-07T09:14:57;13.62;67.95
71047;SHT31;58703;48.978;8.982;2023-04-07T09:17:25;14.52;66.05
71047;SHT31;58703;48.978;8.982;2023-04-07T09:19:59;14.91;62.63
71047;SHT31;58703;48.978;8.982;2023-04-07T09:30:20;13.41;68.73
71047;SHT31;58703;48.978;8.982;2023-04-07T09:32:46;13.55;67.12
71047;SHT31;58703;48.978;8.982;2023-04-07T09:35:13;13.61;64.43
71047;SHT31;58703;48.978;8.982;2023-04-07T09:37:38;13.89;66.76
71047;SHT31;58703;48.978;8.982;2023-04-07T09:40:04;14.52;65.41
71047;SHT31;58703;48.978;8.982;2023-04-07T09:42:31;15.18;59.08
71047;SHT31;58703;48.978;8.982;2023-04-07T09:44:59;16.26;59.25
71047;SHT31;58703;48.978;8.982;2023-04-07T09:47:30;17.59;61.00
71047;SHT31;58703;48.978;8.982;2023-04-07T09:49:57;17.73;54.76
71047;SHT31;58703;48.978;8.982;2023-04-07T09:55:15;15.44;60.69
71047;SHT31;58703;48.978;8.982;2023-04-07T09:57:43;14.84;63.33
71047;SHT31;58703;48.978;8.982;2023-04-07T10:00:09;14.66;59.50
71047;SHT31;58703;48.978;8.982;2023-04-07T10:02:35;14.23;63.10
71047;SHT31;58703;48.978;8.982;2023-04-07T10:05:03;13.44;66.14
71047;SHT31;58703;48.978;8.982;2023-04-07T10:07:30;12.82;67.97
71047;SHT31;58703;48.978;8.982;2023-04-07T10:09:57;12.77;67.58
71047;SHT31;58703;48.978;8.982;2023-04-07T10:12:23;12.97;68.30
71047;SHT31;58703;48.978;8.982;2023-04-07T10:14:49;13.43;66.75
71047;SHT31;58703;48.978;8.982;2023-04-07T10:17:17;13.58;66.59
71047;SHT31;58703;48.978;8.982;2023-04-07T10:19:44;13.53;64.01
71047;SHT31;58703;48.978;8.982;2023-04-07T10:22:12;13.44;64.40
71047;SHT31;58703;48.978;8.982;2023-04-07T10:27:29;13.55;64.56
71047;SHT31;58703;48.978;8.982;2023-04-07T10:29:56;14.12;64.38
71047;SHT31;58703;48.978;8.982;2023-04-07T10:32:22;14.26;63.43
71047;SHT31;58703;48.978;8.982;2023-04-07T10:37:21;13.38;65.13
71047;SHT31;58703;48.978;8.982;2023-04-07T10:39:48;13.27;69.56
71047;SHT31;58703;48.978;8.982;2023-04-07T10:45:07;12.58;71.18
71047;SHT31;58703;48.978;8.982;2023-04-07T10:47:34;11.77;75.56
71047;SHT31;58703;48.978;8.982;2023-04-07T10:50:18;11.27;78.02
71047;SHT31;58703;48.978;8.982;2023-04-07T10:52:46;10.50;80.61
71047;SHT31;58703;48.978;8.982;2023-04-07T10:58:28;10.28;82.24
71047;SHT31;58703;48.978;8.982;2023-04-07T11:03:36;10.22;81.34
71047;SHT31;58703;48.978;8.982;2023-04-07T11:06:03;10.44;84.42
71047;SHT31;58703;48.978;8.982;2023-04-07T11:08:50;10.65;82.49
71047;SHT31;58703;48.978;8.982;2023-04-07T11:11:37;10.83;83.14
71047;SHT31;58703;48.978;8.982;2023-04-07T11:14:05;10.88;82.79
71047;SHT31;58703;48.978;8.982;2023-04-07T11:16:36;10.93;79.57
71047;SHT31;58703;48.978;8.982;2023-04-07T11:19:02;11.53;87.93
71047;SHT31;58703;48.978;8.982;2023-04-07T11:21:29;12.07;85.86
71047;SHT31;58703;48.978;8.982;2023-04-07T11:23:55;12.15;82.64
71047;SHT31;58703;48.978;8.982;2023-04-07T11:26:21;11.88;83.16
71047;SHT31;58703;48.978;8.982;2023-04-07T11:28:52;11.19;80.32
71047;SHT31;58703;48.978;8.982;2023-04-07T11:31:26;11.08;82.09
71047;SHT31;58703;48.978;8.982;2023-04-07T11:34:00;10.99;82.10
71047;SHT31;58703;48.978;8.982;2023-04-07T11:36:34;11.02;82.30
71047;SHT31;58703;48.978;8.982;2023-04-07T11:39:01;11.46;82.84
71047;SHT31;58703;48.978;8.982;2023-04-07T11:41:30;11.54;80.67
71047;SHT31;58703;48.978;8.982;2023-04-07T11:44:08;11.97;77.66
71047;SHT31;58703;48.978;8.982;2023-04-07T11:46:34;12.90;81.97
71047;SHT31;58703;48.978;8.982;2023-04-07T11:49:11;13.02;74.79
71047;SHT31;58703;48.978;8.982;2023-04-07T11:51:38;14.06;76.29
71047;SHT31;58703;48.978;8.982;2023-04-07T11:54:04;13.21;70.19
71047;SHT31;58703;48.978;8.982;2023-04-07T11:56:41;13.30;75.51
71047;SHT31;58703;48.978;8.982;2023-04-07T11:59:07;13.83;76.45
71047;SHT31;58703;48.978;8.982;2023-04-07T12:01:42;14.22;72.91
71047;SHT31;58703;48.978;8.982;2023-04-07T12:04:12;14.26;72.97
71047;SHT31;58703;48.978;8.982;2023-04-07T12:06:39;13.78;71.13
71047;SHT31;58703;48.978;8.982;2023-04-07T12:09:24;13.57;77.06
71047;SHT31;58703;48.978;8.982;2023-04-07T12:11:51;13.28;71.57
71047;SHT31;58703;48.978;8.982;2023-04-07T12:14:18;13.24;72.70
71047;SHT31;58703;48.978;8.982;2023-04-07T12:16:44;12.62;72.56
71047;SHT31;58703;48.978;8.982;2023-04-07T12:19:09;12.89;74.05
71047;SHT31;58703;48.978;8.982;2023-04-07T12:21:35;12.79;74.41
71047;SHT31;58703;48.978;8.982;2023-04-07T12:24:00;12.08;74.34
71047;SHT31;58703;48.978;8.982;2023-04-07T12:26:26;12.20;75.21
71047;SHT31;58703;48.978;8.982;2023-04-07T12:28:52;12.14;74.66
71047;SHT31;58703;48.978;8.982;2023-04-07T12:31:19;12.63;73.96
71047;SHT31;58703;48.978;8.982;2023-04-07T12:33:44;12.60;72.83
71047;SHT31;58703;48.978;8.982;2023-04-07T12:36:10;12.59;74.02
71047;SHT31;58703;48.978;8.982;2023-04-07T12:38:36;12.62;74.64
71047;SHT31;58703;48.978;8.982;2023-04-07T12:41:02;12.77;74.07
71047;SHT31;58703;48.978;8.982;2023-04-07T12:43:30;13.11;72.90
71047;SHT31;58703;48.978;8.982;2023-04-07T12:45:59;13.03;71.50
71047;SHT31;58703;48.978;8.982;2023-04-07T12:48:26;13.04;70.73
71047;SHT31;58703;48.978;8.982;2023-04-07T12:50:53;13.00;73.06
71047;SHT31;58703;48.978;8.982;2023-04-07T12:53:19;12.90;71.36
71047;SHT31;58703;48.978;8.982;2023-04-07T12:55:47;12.53;70.82
71047;SHT31;58703;48.978;8.982;2023-04-07T12:58:14;12.41;71.13
71047;SHT31;58703;48.978;8.982;2023-04-07T13:00:40;12.32;71.31
71047;SHT31;58703;48.978;8.982;2023-04-07T13:03:06;12.24;71.74
71047;SHT31;58703;48.978;8.982;2023-04-07T13:05:34;12.32;72.61
71047;SHT31;58703;48.978;8.982;2023-04-07T13:08:01;12.15;71.58
71047;SHT31;58703;48.978;8.982;2023-04-07T13:10:27;12.17;71.43
71047;SHT31;58703;48.978;8.982;2023-04-07T13:12:53;12.44;70.47
71047;SHT31;58703;48.978;8.982;2023-04-07T13:15:20;12.72;71.94
71047;SHT31;58703;48.978;8.982;2023-04-07T13:17:47;12.80;70.85
71047;SHT31;58703;48.978;8.982;2023-04-07T13:20:13;13.10;70.73
71047;SHT31;58703;48.978;8.982;2023-04-07T13:22:38;12.97;68.24
71047;SHT31;58703;48.978;8.982;2023-04-07T13:25:04;12.96;68.79
71047;SHT31;58703;48.978;8.982;2023-04-07T13:27:30;13.33;71.74
71047;SHT31;58703;48.978;8.982;2023-04-07T13:29:55;13.23;68.19
71047;SHT31;58703;48.978;8.982;2023-04-07T13:32:21;12.63;69.44
71047;SHT31;58703;48.978;8.982;2023-04-07T13:34:49;12.97;72.94
71047;SHT31;58703;48.978;8.982;2023-04-07T13:37:14;12.83;69.44
71047;SHT31;58703;48.978;8.982;2023-04-07T13:39:40;12.65;69.91
71047;SHT31;58703;48.978;8.982;2023-04-07T13:42:06;12.60;70.20
71047;SHT31;58703;48.978;8.982;2023-04-07T13:44:33;13.09;70.90
71047;SHT31;58703;48.978;8.982;2023-04-07T13:47:02;13.14;70.48
71047;SHT31;58703;48.978;8.982;2023-04-07T13:49:28;13.34;70.55
71047;SHT31;58703;48.978;8.982;2023-04-07T13:51:54;13.64;69.97
71047;SHT31;58703;48.978;8.982;2023-04-07T13:54:19;13.86;68.32
71047;SHT31;58703;48.978;8.982;2023-04-07T13:56:45;14.37;65.71
71047;SHT31;58703;48.978;8.982;2023-04-07T13:59:13;14.28;65.76
71047;SHT31;58703;48.978;8.982;2023-04-07T14:01:39;14.16;63.30
71047;SHT31;58703;48.978;8.982;2023-04-07T14:04:05;13.85;64.75
71047;SHT31;58703;48.978;8.982;2023-04-07T14:06:32;15.23;63.22
71047;SHT31;58703;48.978;8.982;2023-04-07T14:08:58;15.42;60.09
71047;SHT31;58703;48.978;8.982;2023-04-07T14:11:25;15.05;60.98
71047;SHT31;58703;48.978;8.982;2023-04-07T14:13:51;14.40;60.51
71047;SHT31;58703;48.978;8.982;2023-04-07T14:16:16;13.60;62.72
71047;SHT31;58703;48.978;8.982;2023-04-07T14:18:43;13.85;64.37
71047;SHT31;58703;48.978;8.982;2023-04-07T14:21:10;13.57;63.63
71047;SHT31;58703;48.978;8.982;2023-04-07T14:23:36;13.91;63.88
71047;SHT31;58703;48.978;8.982;2023-04-07T14:26:01;14.39;62.10
71047;SHT31;58703;48.978;8.982;2023-04-07T14:28:27;15.83;60.77
71047;SHT31;58703;48.978;8.982;2023-04-07T14:30:53;17.59;54.06
71047;SHT31;58703;48.978;8.982;2023-04-07T14:33:20;17.91;52.80
71047;SHT31;58703;48.978;8.982;2023-04-07T14:35:46;16.64;52.51
71047;SHT31;58703;48.978;8.982;2023-04-07T14:38:13;14.73;63.07
71047;SHT31;58703;48.978;8.982;2023-04-07T14:40:39;15.12;65.10
71047;SHT31;58703;48.978;8.982;2023-04-07T14:43:04;15.28;60.53
71047;SHT31;58703;48.978;8.982;2023-04-07T14:45:32;14.40;60.54
71047;SHT31;58703;48.978;8.982;2023-04-07T14:47:58;14.28;59.99
71047;SHT31;58703;48.978;8.982;2023-04-07T14:50:23;13.82;60.43
71047;SHT31;58703;48.978;8.982;2023-04-07T14:52:50;14.60;59.13
71047;SHT31;58703;48.978;8.982;2023-04-07T14:55:19;14.63;59.82
71047;SHT31;58703;48.978;8.982;2023-04-07T14:57:45;14.59;59.02
71047;SHT31;58703;48.978;8.982;2023-04-07T15:00:11;14.97;58.13
71047;SHT31;58703;48.978;8.982;2023-04-07T15:02:37;15.68;54.55
71047;SHT31;58703;48.978;8.982;2023-04-07T15:05:03;16.71;56.06
71047;SHT31;58703;48.978;8.982;2023-04-07T15:07:29;16.82;55.62
71047;SHT31;58703;48.978;8.982;2023-04-07T15:09:56;17.25;52.47
71047;SHT31;58703;48.978;8.982;2023-04-07T15:12:24;17.11;52.19
71047;SHT31;58703;48.978;8.982;2023-04-07T15:14:51;16.67;53.46
71047;SHT31;58703;48.978;8.982;2023-04-07T15:17:19;17.05;50.80
71047;SHT31;58703;48.978;8.982;2023-04-07T15:19:46;16.06;53.56
71047;SHT31;58703;48.978;8.982;2023-04-07T15:22:13;17.01;51.98
71047;SHT31;58703;48.978;8.982;2023-04-07T15:24:41;15.97;54.15
71047;SHT31;58703;48.978;8.982;2023-04-07T15:27:08;17.05;51.26
71047;SHT31;58703;48.978;8.982;2023-04-07T15:29:35;17.83;49.23
71047;SHT31;58703;48.978;8.982;2023-04-07T15:32:01;18.28;47.81
71047;SHT31;58703;48.978;8.982;2023-04-07T15:34:27;17.07;48.85
71047;SHT31;58703;48.978;8.982;2023-04-07T15:36:52;17.63;52.05
71047;SHT31;58703;48.978;8.982;2023-04-07T15:39:19;17.56;49.91
71047;SHT31;58703;48.978;8.982;2023-04-07T15:41:46;17.19;50.76
71047;SHT31;58703;48.978;8.982;2023-04-07T15:44:16;17.87;50.30
71047;SHT31;58703;48.978;8.982;2023-04-07T15:46:41;16.82;53.62
71047;SHT31;58703;48.978;8.982;2023-04-07T15:49:07;16.09;56.02
71047;SHT31;58703;48.978;8.982;2023-04-07T15:51:32;14.64;60.22
71047;SHT31;58703;48.978;8.982;2023-04-07T15:53:58;13.58;62.62
71047;SHT31;58703;48.978;8.982;2023-04-07T15:56:25;14.66;60.12
71047;SHT31;58703;48.978;8.982;2023-04-07T15:58:52;16.03;56.47
71047;SHT31;58703;48.978;8.982;2023-04-07T16:01:17;16.36;54.76
71047;SHT31;58703;48.978;8.982;2023-04-07T16:03:43;16.40;54.93
71047;SHT31;58703;48.978;8.982;2023-04-07T16:06:09;13.81;60.78
71047;SHT31;58703;48.978;8.982;2023-04-07T16:08:34;12.65;65.75